sensor_id;sensor_type;location;lat;lon;timestamp;P1;durP1;ratioP1;P2;durP2;ratioP2
51806;SDS011;37865;51.304;9.536;2023-05-07T00:00:08;24.85;;;19.55;;
51806;SDS011;37865;51.304;9.536;2023-05-07T00:02:34;22.00;;;19.73;;
51806;SDS011;37865;51.304;9.536;2023-05-07T00:04:59;21.90;;;18.70;;
51806;SDS011;37865;51.304;9.536;2023-05-07T00:07:27;21.90;;;19.50;;
51806;SDS011;37865;51.304;9.536;2023-05-07T00:09:52;22.85;;;19.35;;
51806;SDS011;37865;51.304;9.536;2023-05-07T00:12:17;29.05;;;21.85;;
51806;SDS011;37865;51.304;9.536;2023-05-07T00:14:43;25.25;;;21.08;;
51806;SDS011;37865;51.304;9.536;2023-05-07T00:17:08;24.23;;;19.90;;
51806;SDS011;37865;51.304;9.536;2023-05-07T00:19:34;25.90;;;22.40;;
51806;SDS011;37865;51.304;9.536;2023-05-07T00:21:59;27.25;;;22.17;;
51806;SDS011;37865;51.304;9.536;2023-05-07T00:24:25;26.30;;;22.15;;
51806;SDS011;37865;51.304;9.536;2023-05-07T00:26:50;26.45;;;21.75;;
51806;SDS011;37865;51.304;9.536;2023-05-07T00:29:16;26.73;;;22.77;;
51806;SDS011;37865;51.304;9.536;2023-05-07T00:31:41;31.48;;;23.63;;
51806;SDS011;37865;51.304;9.536;2023-05-07T00:34:06;31.60;;;24.58;;
51806;SDS011;37865;51.304;9.536;2023-05-07T00:36:32;28.63;;;22.73;;
51806;SDS011;37865;51.304;9.536;2023-05-07T00:38:58;27.83;;;23.50;;
51806;SDS011;37865;51.304;9.536;2023-05-07T00:41:25;28.77;;;23.95;;
51806;SDS011;37865;51.304;9.536;2023-05-07T00:43:51;42.40;;;24.60;;
51806;SDS011;37865;51.304;9.536;2023-05-07T00:46:17;37.47;;;26.73;;
51806;SDS011;37865;51.304;9.536;2023-05-07T00:48:42;37.20;;;27.80;;
51806;SDS011;37865;51.304;9.536;2023-05-07T00:51:09;37.83;;;25.98;;
51806;SDS011;37865;51.304;9.536;2023-05-07T00:53:36;36.22;;;27.23;;
51806;SDS011;37865;51.304;9.536;2023-05-07T00:56:01;34.90;;;27.23;;
51806;SDS011;37865;51.304;9.536;2023-05-07T00:58:27;35.38;;;27.73;;
51806;SDS011;37865;51.304;9.536;2023-05-07T01:00:52;37.97;;;26.95;;
51806;SDS011;37865;51.304;9.536;2023-05-07T01:03:18;34.17;;;28.58;;
51806;SDS011;37865;51.304;9.536;2023-05-07T01:05:43;35.38;;;26.80;;
51806;SDS011;37865;51.304;9.536;2023-05-07T01:08:12;33.95;;;28.63;;
51806;SDS011;37865;51.304;9.536;2023-05-07T01:10:38;40.13;;;30.83;;
51806;SDS011;37865;51.304;9.536;2023-05-07T01:13:07;39.33;;;30.27;;
51806;SDS011;37865;51.304;9.536;2023-05-07T01:15:35;39.38;;;32.80;;
51806;SDS011;37865;51.304;9.536;2023-05-07T01:18:00;37.45;;;30.85;;
51806;SDS011;37865;51.304;9.536;2023-05-07T01:20:26;42.47;;;33.72;;
51806;SDS011;37865;51.304;9.536;2023-05-07T01:22:53;43.53;;;31.85;;
51806;SDS011;37865;51.304;9.536;2023-05-07T01:25:18;34.97;;;29.15;;
51806;SDS011;37865;51.304;9.536;2023-05-07T01:27:44;35.30;;;27.98;;
51806;SDS011;37865;51.304;9.536;2023-05-07T01:30:10;38.45;;;29.50;;
51806;SDS011;37865;51.304;9.536;2023-05-07T01:32:37;37.45;;;28.48;;
51806;SDS011;37865;51.304;9.536;2023-05-07T01:35:07;38.67;;;28.98;;
51806;SDS011;37865;51.304;9.536;2023-05-07T01:37:36;41.33;;;29.98;;
51806;SDS011;37865;51.304;9.536;2023-05-07T01:40:02;37.70;;;30.83;;
51806;SDS011;37865;51.304;9.536;2023-05-07T01:42:28;38.42;;;28.52;;
51806;SDS011;37865;51.304;9.536;2023-05-07T01:44:54;36.08;;;28.77;;
51806;SDS011;37865;51.304;9.536;2023-05-07T01:47:20;37.58;;;29.73;;
51806;SDS011;37865;51.304;9.536;2023-05-07T01:49:46;36.33;;;29.00;;
51806;SDS011;37865;51.304;9.536;2023-05-07T01:52:11;38.42;;;29.83;;
51806;SDS011;37865;51.304;9.536;2023-05-07T01:54:37;34.40;;;27.70;;
51806;SDS011;37865;51.304;9.536;2023-05-07T01:57:02;50.70;;;30.23;;
51806;SDS011;37865;51.304;9.536;2023-05-07T01:59:27;37.00;;;29.40;;
51806;SDS011;37865;51.304;9.536;2023-05-07T02:01:53;31.30;;;27.92;;
51806;SDS011;37865;51.304;9.536;2023-05-07T02:04:18;42.15;;;29.63;;
51806;SDS011;37865;51.304;9.536;2023-05-07T02:06:44;37.50;;;28.55;;
51806;SDS011;37865;51.304;9.536;2023-05-07T02:09:09;37.15;;;29.17;;
51806;SDS011;37865;51.304;9.536;2023-05-07T02:11:34;39.33;;;29.20;;
51806;SDS011;37865;51.304;9.536;2023-05-07T02:14:00;37.83;;;26.75;;
51806;SDS011;37865;51.304;9.536;2023-05-07T02:16:25;35.85;;;27.75;;
51806;SDS011;37865;51.304;9.536;2023-05-07T02:18:50;36.10;;;27.48;;
51806;SDS011;37865;51.304;9.536;2023-05-07T02:21:16;36.63;;;29.40;;
51806;SDS011;37865;51.304;9.536;2023-05-07T02:23:41;42.95;;;30.52;;
51806;SDS011;37865;51.304;9.536;2023-05-07T02:26:06;48.60;;;29.63;;
51806;SDS011;37865;51.304;9.536;2023-05-07T02:28:32;45.30;;;27.58;;
51806;SDS011;37865;51.304;9.536;2023-05-07T02:31:00;43.83;;;30.50;;
51806;SDS011;37865;51.304;9.536;2023-05-07T02:33:27;37.42;;;27.95;;
51806;SDS011;37865;51.304;9.536;2023-05-07T02:35:52;43.83;;;31.52;;
51806;SDS011;37865;51.304;9.536;2023-05-07T02:38:17;46.45;;;32.97;;
51806;SDS011;37865;51.304;9.536;2023-05-07T02:40:43;34.75;;;30.50;;
51806;SDS011;37865;51.304;9.536;2023-05-07T02:43:08;44.38;;;31.08;;
51806;SDS011;37865;51.304;9.536;2023-05-07T02:45:34;43.83;;;31.50;;
51806;SDS011;37865;51.304;9.536;2023-05-07T02:47:59;45.65;;;29.98;;
51806;SDS011;37865;51.304;9.536;2023-05-07T02:50:25;42.35;;;30.67;;
51806;SDS011;37865;51.304;9.536;2023-05-07T02:52:52;35.25;;;29.17;;
51806;SDS011;37865;51.304;9.536;2023-05-07T02:55:17;39.70;;;30.23;;
51806;SDS011;37865;51.304;9.536;2023-05-07T02:57:42;42.55;;;30.98;;
51806;SDS011;37865;51.304;9.536;2023-05-07T03:00:12;42.13;;;31.85;;
51806;SDS011;37865;51.304;9.536;2023-05-07T03:02:37;41.67;;;32.72;;
51806;SDS011;37865;51.304;9.536;2023-05-07T03:05:03;39.55;;;31.55;;
51806;SDS011;37865;51.304;9.536;2023-05-07T03:07:28;44.53;;;32.67;;
51806;SDS011;37865;51.304;9.536;2023-05-07T03:09:53;45.10;;;31.88;;
51806;SDS011;37865;51.304;9.536;2023-05-07T03:12:19;42.55;;;32.65;;
51806;SDS011;37865;51.304;9.536;2023-05-07T03:14:45;41.20;;;31.55;;
51806;SDS011;37865;51.304;9.536;2023-05-07T03:17:10;45.55;;;32.53;;
51806;SDS011;37865;51.304;9.536;2023-05-07T03:19:35;36.70;;;31.65;;
51806;SDS011;37865;51.304;9.536;2023-05-07T03:22:01;39.60;;;30.08;;
51806;SDS011;37865;51.304;9.536;2023-05-07T03:24:26;41.90;;;30.95;;
51806;SDS011;37865;51.304;9.536;2023-05-07T03:26:51;42.65;;;30.38;;
51806;SDS011;37865;51.304;9.536;2023-05-07T03:29:17;44.72;;;32.13;;
51806;SDS011;37865;51.304;9.536;2023-05-07T03:31:42;40.72;;;31.80;;
51806;SDS011;37865;51.304;9.536;2023-05-07T03:34:07;38.47;;;30.90;;
51806;SDS011;37865;51.304;9.536;2023-05-07T03:36:33;38.20;;;29.13;;
51806;SDS011;37865;51.304;9.536;2023-05-07T03:38:58;40.05;;;28.70;;
51806;SDS011;37865;51.304;9.536;2023-05-07T03:41:23;37.13;;;29.58;;
51806;SDS011;37865;51.304;9.536;2023-05-07T03:43:49;37.33;;;28.90;;
51806;SDS011;37865;51.304;9.536;2023-05-07T03:46:14;32.78;;;28.55;;
51806;SDS011;37865;51.304;9.536;2023-05-07T03:48:39;39.42;;;30.00;;
51806;SDS011;37865;51.304;9.536;2023-05-07T03:51:05;40.15;;;27.50;;
51806;SDS011;37865;51.304;9.536;2023-05-07T03:53:30;39.80;;;31.50;;
51806;SDS011;37865;51.304;9.536;2023-05-07T03:55:55;40.22;;;32.28;;
51806;SDS011;37865;51.304;9.536;2023-05-07T03:58:21;53.47;;;34.33;;
51806;SDS011;37865;51.304;9.536;2023-05-07T04:00:46;40.33;;;31.25;;
51806;SDS011;37865;51.304;9.536;2023-05-07T04:03:11;43.58;;;31.15;;
51806;SDS011;37865;51.304;9.536;2023-05-07T04:05:36;43.72;;;34.78;;
51806;SDS011;37865;51.304;9.536;2023-05-07T04:08:02;43.40;;;33.20;;
51806;SDS011;37865;51.304;9.536;2023-05-07T04:10:28;48.35;;;33.60;;
51806;SDS011;37865;51.304;9.536;2023-05-07T04:12:54;50.85;;;33.72;;
51806;SDS011;37865;51.304;9.536;2023-05-07T04:15:19;47.03;;;36.33;;
51806;SDS011;37865;51.304;9.536;2023-05-07T04:17:45;46.78;;;33.00;;
51806;SDS011;37865;51.304;9.536;2023-05-07T04:20:13;48.25;;;33.33;;
51806;SDS011;37865;51.304;9.536;2023-05-07T04:22:40;46.00;;;32.72;;
51806;SDS011;37865;51.304;9.536;2023-05-07T04:25:05;46.15;;;32.38;;
51806;SDS011;37865;51.304;9.536;2023-05-07T04:27:31;43.78;;;31.27;;
51806;SDS011;37865;51.304;9.536;2023-05-07T04:29:57;47.60;;;35.28;;
51806;SDS011;37865;51.304;9.536;2023-05-07T04:32:22;43.67;;;33.72;;
51806;SDS011;37865;51.304;9.536;2023-05-07T04:34:49;42.47;;;33.10;;
51806;SDS011;37865;51.304;9.536;2023-05-07T04:37:15;46.95;;;32.28;;
51806;SDS011;37865;51.304;9.536;2023-05-07T04:39:40;42.28;;;32.22;;
51806;SDS011;37865;51.304;9.536;2023-05-07T04:42:05;42.65;;;29.52;;
51806;SDS011;37865;51.304;9.536;2023-05-07T04:44:33;42.28;;;30.15;;
51806;SDS011;37865;51.304;9.536;2023-05-07T04:46:59;43.50;;;30.38;;
51806;SDS011;37865;51.304;9.536;2023-05-07T04:49:25;39.63;;;29.67;;
51806;SDS011;37865;51.304;9.536;2023-05-07T04:51:50;41.25;;;31.23;;
51806;SDS011;37865;51.304;9.536;2023-05-07T04:54:16;44.65;;;31.40;;
51806;SDS011;37865;51.304;9.536;2023-05-07T04:56:41;44.47;;;29.90;;
51806;SDS011;37865;51.304;9.536;2023-05-07T04:59:06;40.28;;;29.75;;
51806;SDS011;37865;51.304;9.536;2023-05-07T05:01:32;36.53;;;27.92;;
51806;SDS011;37865;51.304;9.536;2023-05-07T05:03:57;37.35;;;28.73;;
51806;SDS011;37865;51.304;9.536;2023-05-07T05:06:22;31.95;;;26.30;;
51806;SDS011;37865;51.304;9.536;2023-05-07T05:08:47;34.92;;;24.05;;
51806;SDS011;37865;51.304;9.536;2023-05-07T05:11:13;28.33;;;22.95;;
51806;SDS011;37865;51.304;9.536;2023-05-07T05:13:38;32.95;;;23.38;;
51806;SDS011;37865;51.304;9.536;2023-05-07T05:16:04;31.95;;;22.52;;
51806;SDS011;37865;51.304;9.536;2023-05-07T05:18:30;26.67;;;19.65;;
51806;SDS011;37865;51.304;9.536;2023-05-07T05:20:56;25.60;;;20.45;;
51806;SDS011;37865;51.304;9.536;2023-05-07T05:23:21;30.30;;;21.90;;
51806;SDS011;37865;51.304;9.536;2023-05-07T05:25:46;27.88;;;20.40;;
51806;SDS011;37865;51.304;9.536;2023-05-07T05:28:12;25.65;;;20.25;;
51806;SDS011;37865;51.304;9.536;2023-05-07T05:30:37;22.25;;;17.40;;
51806;SDS011;37865;51.304;9.536;2023-05-07T05:33:02;24.55;;;19.42;;
51806;SDS011;37865;51.304;9.536;2023-05-07T05:35:29;23.70;;;17.85;;
51806;SDS011;37865;51.304;9.536;2023-05-07T05:37:54;29.05;;;21.13;;
51806;SDS011;37865;51.304;9.536;2023-05-07T05:40:20;22.58;;;19.13;;
51806;SDS011;37865;51.304;9.536;2023-05-07T05:42:45;21.75;;;18.17;;
51806;SDS011;37865;51.304;9.536;2023-05-07T05:45:10;17.55;;;14.27;;
51806;SDS011;37865;51.304;9.536;2023-05-07T05:47:36;22.25;;;15.77;;
51806;SDS011;37865;51.304;9.536;2023-05-07T05:50:02;21.35;;;15.45;;
51806;SDS011;37865;51.304;9.536;2023-05-07T05:52:28;25.92;;;15.07;;
51806;SDS011;37865;51.304;9.536;2023-05-07T05:54:53;20.20;;;16.20;;
51806;SDS011;37865;51.304;9.536;2023-05-07T05:57:19;16.10;;;14.40;;
51806;SDS011;37865;51.304;9.536;2023-05-07T05:59:44;15.50;;;13.43;;
51806;SDS011;37865;51.304;9.536;2023-05-07T06:02:10;17.17;;;13.35;;
51806;SDS011;37865;51.304;9.536;2023-05-07T06:04:35;20.25;;;14.73;;
51806;SDS011;37865;51.304;9.536;2023-05-07T06:07:00;17.60;;;15.05;;
51806;SDS011;37865;51.304;9.536;2023-05-07T06:09:26;20.23;;;14.13;;
51806;SDS011;37865;51.304;9.536;2023-05-07T06:11:51;17.17;;;12.45;;
51806;SDS011;37865;51.304;9.536;2023-05-07T06:14:16;16.15;;;14.13;;
51806;SDS011;37865;51.304;9.536;2023-05-07T06:16:42;18.10;;;12.85;;
51806;SDS011;37865;51.304;9.536;2023-05-07T06:19:07;16.67;;;14.23;;
51806;SDS011;37865;51.304;9.536;2023-05-07T06:21:32;18.10;;;14.02;;
51806;SDS011;37865;51.304;9.536;2023-05-07T06:23:58;14.32;;;12.15;;
51806;SDS011;37865;51.304;9.536;2023-05-07T06:26:23;15.48;;;12.20;;
51806;SDS011;37865;51.304;9.536;2023-05-07T06:28:48;15.00;;;11.77;;
51806;SDS011;37865;51.304;9.536;2023-05-07T06:31:16;18.23;;;12.88;;
51806;SDS011;37865;51.304;9.536;2023-05-07T06:33:45;17.55;;;13.68;;
51806;SDS011;37865;51.304;9.536;2023-05-07T06:36:10;18.30;;;12.40;;
51806;SDS011;37865;51.304;9.536;2023-05-07T06:38:36;15.68;;;10.63;;
51806;SDS011;37865;51.304;9.536;2023-05-07T06:41:01;14.93;;;11.68;;
51806;SDS011;37865;51.304;9.536;2023-05-07T06:43:26;15.48;;;11.40;;
51806;SDS011;37865;51.304;9.536;2023-05-07T06:45:52;12.57;;;9.85;;
51806;SDS011;37865;51.304;9.536;2023-05-07T06:48:17;13.43;;;9.57;;
51806;SDS011;37865;51.304;9.536;2023-05-07T06:50:42;13.10;;;9.32;;
51806;SDS011;37865;51.304;9.536;2023-05-07T06:53:08;10.27;;;7.82;;
51806;SDS011;37865;51.304;9.536;2023-05-07T06:55:33;12.48;;;9.63;;
51806;SDS011;37865;51.304;9.536;2023-05-07T06:57:58;18.15;;;9.38;;
51806;SDS011;37865;51.304;9.536;2023-05-07T07:00:26;16.30;;;8.85;;
51806;SDS011;37865;51.304;9.536;2023-05-07T07:02:52;12.70;;;10.55;;
51806;SDS011;37865;51.304;9.536;2023-05-07T07:05:18;13.25;;;10.55;;
51806;SDS011;37865;51.304;9.536;2023-05-07T07:07:43;11.27;;;9.70;;
51806;SDS011;37865;51.304;9.536;2023-05-07T07:10:09;13.07;;;11.43;;
51806;SDS011;37865;51.304;9.536;2023-05-07T07:12:34;13.18;;;10.10;;
51806;SDS011;37865;51.304;9.536;2023-05-07T07:15:00;12.20;;;9.23;;
51806;SDS011;37865;51.304;9.536;2023-05-07T07:17:25;12.07;;;9.43;;
51806;SDS011;37865;51.304;9.536;2023-05-07T07:19:50;14.63;;;10.50;;
51806;SDS011;37865;51.304;9.536;2023-05-07T07:22:16;11.93;;;10.57;;
51806;SDS011;37865;51.304;9.536;2023-05-07T07:24:41;12.50;;;9.45;;
51806;SDS011;37865;51.304;9.536;2023-05-07T07:27:06;12.00;;;9.90;;
51806;SDS011;37865;51.304;9.536;2023-05-07T07:29:32;10.30;;;9.20;;
51806;SDS011;37865;51.304;9.536;2023-05-07T07:31:57;13.02;;;9.45;;
51806;SDS011;37865;51.304;9.536;2023-05-07T07:34:22;11.68;;;8.50;;
51806;SDS011;37865;51.304;9.536;2023-05-07T07:36:48;12.70;;;8.90;;
51806;SDS011;37865;51.304;9.536;2023-05-07T07:39:13;10.00;;;8.05;;
51806;SDS011;37865;51.304;9.536;2023-05-07T07:41:38;11.13;;;8.15;;
51806;SDS011;37865;51.304;9.536;2023-05-07T07:44:04;8.00;;;7.20;;
51806;SDS011;37865;51.304;9.536;2023-05-07T07:46:32;9.35;;;7.95;;
51806;SDS011;37865;51.304;9.536;2023-05-07T07:48:57;9.38;;;7.70;;
51806;SDS011;37865;51.304;9.536;2023-05-07T07:51:24;14.60;;;8.90;;
51806;SDS011;37865;51.304;9.536;2023-05-07T07:53:50;10.07;;;7.30;;
51806;SDS011;37865;51.304;9.536;2023-05-07T07:56:15;9.00;;;8.10;;
51806;SDS011;37865;51.304;9.536;2023-05-07T07:58:40;9.68;;;7.80;;
51806;SDS011;37865;51.304;9.536;2023-05-07T08:01:07;10.50;;;7.55;;
51806;SDS011;37865;51.304;9.536;2023-05-07T08:03:32;8.15;;;6.57;;
51806;SDS011;37865;51.304;9.536;2023-05-07T08:05:57;11.32;;;8.60;;
51806;SDS011;37865;51.304;9.536;2023-05-07T08:08:23;14.95;;;8.95;;
51806;SDS011;37865;51.304;9.536;2023-05-07T08:10:48;12.95;;;8.48;;
51806;SDS011;37865;51.304;9.536;2023-05-07T08:13:15;9.75;;;8.15;;
51806;SDS011;37865;51.304;9.536;2023-05-07T08:15:41;10.43;;;7.75;;
51806;SDS011;37865;51.304;9.536;2023-05-07T08:18:06;13.52;;;7.57;;
51806;SDS011;37865;51.304;9.536;2023-05-07T08:20:31;8.95;;;7.97;;
51806;SDS011;37865;51.304;9.536;2023-05-07T08:22:58;10.57;;;8.82;;
51806;SDS011;37865;51.304;9.536;2023-05-07T08:25:23;8.80;;;7.82;;
51806;SDS011;37865;51.304;9.536;2023-05-07T08:27:49;7.75;;;6.97;;
51806;SDS011;37865;51.304;9.536;2023-05-07T08:30:14;11.45;;;7.93;;
51806;SDS011;37865;51.304;9.536;2023-05-07T08:32:40;9.25;;;7.82;;
51806;SDS011;37865;51.304;9.536;2023-05-07T08:35:05;13.68;;;9.93;;
51806;SDS011;37865;51.304;9.536;2023-05-07T08:37:30;9.13;;;7.15;;
51806;SDS011;37865;51.304;9.536;2023-05-07T08:39:56;7.60;;;6.72;;
51806;SDS011;37865;51.304;9.536;2023-05-07T08:42:23;8.45;;;6.95;;
51806;SDS011;37865;51.304;9.536;2023-05-07T08:44:50;8.20;;;7.25;;
51806;SDS011;37865;51.304;9.536;2023-05-07T08:47:20;8.82;;;6.43;;
51806;SDS011;37865;51.304;9.536;2023-05-07T08:49:48;14.52;;;7.53;;
51806;SDS011;37865;51.304;9.536;2023-05-07T08:52:14;7.88;;;6.93;;
51806;SDS011;37865;51.304;9.536;2023-05-07T08:54:40;6.53;;;5.93;;
51806;SDS011;37865;51.304;9.536;2023-05-07T08:57:05;7.35;;;6.63;;
51806;SDS011;37865;51.304;9.536;2023-05-07T08:59:31;12.07;;;7.25;;
51806;SDS011;37865;51.304;9.536;2023-05-07T09:01:56;7.30;;;6.32;;
51806;SDS011;37865;51.304;9.536;2023-05-07T09:04:22;7.65;;;6.85;;
51806;SDS011;37865;51.304;9.536;2023-05-07T09:06:47;8.07;;;7.00;;
51806;SDS011;37865;51.304;9.536;2023-05-07T09:09:16;7.13;;;6.45;;
51806;SDS011;37865;51.304;9.536;2023-05-07T09:11:45;9.63;;;8.57;;
51806;SDS011;37865;51.304;9.536;2023-05-07T09:14:10;8.13;;;6.72;;
51806;SDS011;37865;51.304;9.536;2023-05-07T09:16:35;6.80;;;5.88;;
51806;SDS011;37865;51.304;9.536;2023-05-07T09:19:00;8.63;;;6.03;;
51806;SDS011;37865;51.304;9.536;2023-05-07T09:21:26;10.02;;;6.53;;
51806;SDS011;37865;51.304;9.536;2023-05-07T09:23:52;8.18;;;6.47;;
51806;SDS011;37865;51.304;9.536;2023-05-07T09:26:21;8.50;;;6.70;;
51806;SDS011;37865;51.304;9.536;2023-05-07T09:28:47;8.73;;;5.78;;
51806;SDS011;37865;51.304;9.536;2023-05-07T09:31:12;7.03;;;5.65;;
51806;SDS011;37865;51.304;9.536;2023-05-07T09:33:38;7.25;;;5.47;;
51806;SDS011;37865;51.304;9.536;2023-05-07T09:36:05;7.07;;;6.40;;
51806;SDS011;37865;51.304;9.536;2023-05-07T09:38:32;12.52;;;10.23;;
51806;SDS011;37865;51.304;9.536;2023-05-07T09:41:08;10.00;;;5.28;;
51806;SDS011;37865;51.304;9.536;2023-05-07T09:43:35;10.18;;;5.30;;
51806;SDS011;37865;51.304;9.536;2023-05-07T09:46:10;5.75;;;4.60;;
51806;SDS011;37865;51.304;9.536;2023-05-07T09:48:38;3.95;;;3.55;;
51806;SDS011;37865;51.304;9.536;2023-05-07T09:51:06;4.78;;;3.35;;
51806;SDS011;37865;51.304;9.536;2023-05-07T09:53:56;12.02;;;5.05;;
51806;SDS011;37865;51.304;9.536;2023-05-07T09:56:22;6.65;;;5.07;;
51806;SDS011;37865;51.304;9.536;2023-05-07T09:58:49;3.70;;;3.33;;
51806;SDS011;37865;51.304;9.536;2023-05-07T10:01:17;4.00;;;2.85;;
51806;SDS011;37865;51.304;9.536;2023-05-07T10:03:46;4.18;;;2.88;;
51806;SDS011;37865;51.304;9.536;2023-05-07T10:06:13;3.47;;;2.88;;
51806;SDS011;37865;51.304;9.536;2023-05-07T10:08:39;5.25;;;2.75;;
51806;SDS011;37865;51.304;9.536;2023-05-07T10:11:05;2.80;;;2.53;;
51806;SDS011;37865;51.304;9.536;2023-05-07T10:13:33;4.47;;;2.72;;
51806;SDS011;37865;51.304;9.536;2023-05-07T10:16:03;7.40;;;3.00;;
51806;SDS011;37865;51.304;9.536;2023-05-07T10:18:33;4.45;;;2.90;;
51806;SDS011;37865;51.304;9.536;2023-05-07T10:21:08;5.22;;;3.40;;
51806;SDS011;37865;51.304;9.536;2023-05-07T10:23:40;3.55;;;3.25;;
51806;SDS011;37865;51.304;9.536;2023-05-07T10:26:06;5.43;;;2.80;;
51806;SDS011;37865;51.304;9.536;2023-05-07T10:28:34;3.03;;;2.75;;
51806;SDS011;37865;51.304;9.536;2023-05-07T10:33:54;5.82;;;2.75;;
51806;SDS011;37865;51.304;9.536;2023-05-07T10:36:21;5.38;;;2.80;;
51806;SDS011;37865;51.304;9.536;2023-05-07T10:38:48;3.78;;;3.05;;
51806;SDS011;37865;51.304;9.536;2023-05-07T10:41:14;4.32;;;2.60;;
51806;SDS011;37865;51.304;9.536;2023-05-07T10:43:42;2.83;;;2.63;;
51806;SDS011;37865;51.304;9.536;2023-05-07T10:46:09;3.65;;;2.65;;
51806;SDS011;37865;51.304;9.536;2023-05-07T10:51:27;3.78;;;2.83;;
51806;SDS011;37865;51.304;9.536;2023-05-07T10:56:39;2.63;;;2.42;;
51806;SDS011;37865;51.304;9.536;2023-05-07T11:01:54;3.55;;;3.25;;
51806;SDS011;37865;51.304;9.536;2023-05-07T11:04:23;3.20;;;2.67;;
51806;SDS011;37865;51.304;9.536;2023-05-07T11:09:53;11.60;;;3.75;;
51806;SDS011;37865;51.304;9.536;2023-05-07T11:12:16;3.53;;;2.70;;
51806;SDS011;37865;51.304;9.536;2023-05-07T11:15:09;3.03;;;2.55;;
51806;SDS011;37865;51.304;9.536;2023-05-07T11:17:51;4.15;;;3.58;;
51806;SDS011;37865;51.304;9.536;2023-05-07T11:20:18;4.72;;;3.17;;
51806;SDS011;37865;51.304;9.536;2023-05-07T11:22:43;11.77;;;8.57;;
51806;SDS011;37865;51.304;9.536;2023-05-07T11:25:08;6.22;;;4.55;;
51806;SDS011;37865;51.304;9.536;2023-05-07T11:27:34;5.47;;;3.30;;
51806;SDS011;37865;51.304;9.536;2023-05-07T11:29:59;4.00;;;3.60;;
51806;SDS011;37865;51.304;9.536;2023-05-07T11:32:28;4.57;;;3.40;;
51806;SDS011;37865;51.304;9.536;2023-05-07T11:34:56;3.45;;;3.15;;
51806;SDS011;37865;51.304;9.536;2023-05-07T11:37:23;4.15;;;3.75;;
51806;SDS011;37865;51.304;9.536;2023-05-07T11:39:49;6.40;;;3.33;;
51806;SDS011;37865;51.304;9.536;2023-05-07T11:42:27;4.05;;;3.15;;
51806;SDS011;37865;51.304;9.536;2023-05-07T11:44:53;4.07;;;3.65;;
51806;SDS011;37865;51.304;9.536;2023-05-07T11:47:19;3.55;;;3.25;;
51806;SDS011;37865;51.304;9.536;2023-05-07T11:49:48;3.40;;;3.08;;
51806;SDS011;37865;51.304;9.536;2023-05-07T11:52:15;4.95;;;4.07;;
51806;SDS011;37865;51.304;9.536;2023-05-07T11:54:48;5.80;;;5.18;;
51806;SDS011;37865;51.304;9.536;2023-05-07T11:57:16;5.72;;;4.95;;
51806;SDS011;37865;51.304;9.536;2023-05-07T11:59:41;3.45;;;3.15;;
51806;SDS011;37865;51.304;9.536;2023-05-07T12:02:09;3.83;;;3.45;;
51806;SDS011;37865;51.304;9.536;2023-05-07T12:04:34;4.40;;;3.65;;
51806;SDS011;37865;51.304;9.536;2023-05-07T12:07:00;3.95;;;3.55;;
51806;SDS011;37865;51.304;9.536;2023-05-07T12:09:26;4.95;;;3.75;;
51806;SDS011;37865;51.304;9.536;2023-05-07T12:11:51;4.90;;;3.55;;
51806;SDS011;37865;51.304;9.536;2023-05-07T12:14:17;4.25;;;3.85;;
51806;SDS011;37865;51.304;9.536;2023-05-07T12:16:43;4.45;;;3.55;;
51806;SDS011;37865;51.304;9.536;2023-05-07T12:19:10;3.95;;;3.60;;
51806;SDS011;37865;51.304;9.536;2023-05-07T12:21:37;6.18;;;4.20;;
51806;SDS011;37865;51.304;9.536;2023-05-07T12:24:03;5.18;;;4.68;;
51806;SDS011;37865;51.304;9.536;2023-05-07T12:26:29;4.28;;;3.88;;
51806;SDS011;37865;51.304;9.536;2023-05-07T12:28:55;6.82;;;4.50;;
51806;SDS011;37865;51.304;9.536;2023-05-07T12:31:22;4.45;;;4.07;;
51806;SDS011;37865;51.304;9.536;2023-05-07T12:33:48;4.68;;;3.67;;
51806;SDS011;37865;51.304;9.536;2023-05-07T12:36:13;5.78;;;5.15;;
51806;SDS011;37865;51.304;9.536;2023-05-07T12:38:39;4.38;;;3.92;;
51806;SDS011;37865;51.304;9.536;2023-05-07T12:41:08;5.07;;;4.18;;
51806;SDS011;37865;51.304;9.536;2023-05-07T12:43:35;5.70;;;3.58;;
51806;SDS011;37865;51.304;9.536;2023-05-07T12:46:02;8.07;;;4.72;;
51806;SDS011;37865;51.304;9.536;2023-05-07T12:48:29;4.78;;;3.95;;
51806;SDS011;37865;51.304;9.536;2023-05-07T12:50:55;6.15;;;4.13;;
51806;SDS011;37865;51.304;9.536;2023-05-07T12:53:22;5.10;;;4.15;;
51806;SDS011;37865;51.304;9.536;2023-05-07T12:55:49;4.05;;;3.65;;
51806;SDS011;37865;51.304;9.536;2023-05-07T12:58:16;7.28;;;4.80;;
51806;SDS011;37865;51.304;9.536;2023-05-07T13:00:43;5.18;;;4.63;;
51806;SDS011;37865;51.304;9.536;2023-05-07T13:03:09;7.43;;;4.63;;
51806;SDS011;37865;51.304;9.536;2023-05-07T13:05:35;5.10;;;4.45;;
51806;SDS011;37865;51.304;9.536;2023-05-07T13:08:01;5.72;;;5.13;;
51806;SDS011;37865;51.304;9.536;2023-05-07T13:10:26;10.77;;;9.65;;
51806;SDS011;37865;51.304;9.536;2023-05-07T13:12:52;7.35;;;5.45;;
51806;SDS011;37865;51.304;9.536;2023-05-07T13:15:17;4.82;;;4.15;;
51806;SDS011;37865;51.304;9.536;2023-05-07T13:17:43;6.78;;;5.43;;
51806;SDS011;37865;51.304;9.536;2023-05-07T13:20:11;4.95;;;4.47;;
51806;SDS011;37865;51.304;9.536;2023-05-07T13:22:37;6.57;;;4.70;;
51806;SDS011;37865;51.304;9.536;2023-05-07T13:25:03;6.35;;;5.57;;
51806;SDS011;37865;51.304;9.536;2023-05-07T13:27:29;5.85;;;4.53;;
51806;SDS011;37865;51.304;9.536;2023-05-07T13:29:55;6.75;;;4.85;;
51806;SDS011;37865;51.304;9.536;2023-05-07T13:32:21;6.28;;;4.95;;
51806;SDS011;37865;51.304;9.536;2023-05-07T13:34:46;5.18;;;4.70;;
51806;SDS011;37865;51.304;9.536;2023-05-07T13:37:12;9.98;;;5.60;;
51806;SDS011;37865;51.304;9.536;2023-05-07T13:39:37;7.40;;;6.50;;
51806;SDS011;37865;51.304;9.536;2023-05-07T13:42:02;6.78;;;6.15;;
51806;SDS011;37865;51.304;9.536;2023-05-07T13:44:28;8.30;;;7.70;;
51806;SDS011;37865;51.304;9.536;2023-05-07T13:46:53;9.57;;;4.95;;
51806;SDS011;37865;51.304;9.536;2023-05-07T13:49:18;5.60;;;5.10;;
51806;SDS011;37865;51.304;9.536;2023-05-07T13:51:44;5.15;;;4.63;;
51806;SDS011;37865;51.304;9.536;2023-05-07T13:54:10;5.40;;;4.90;;
51806;SDS011;37865;51.304;9.536;2023-05-07T13:56:35;8.85;;;8.00;;
51806;SDS011;37865;51.304;9.536;2023-05-07T13:59:01;6.70;;;5.75;;
51806;SDS011;37865;51.304;9.536;2023-05-07T14:01:26;18.42;;;9.23;;
51806;SDS011;37865;51.304;9.536;2023-05-07T14:03:52;7.68;;;7.07;;
51806;SDS011;37865;51.304;9.536;2023-05-07T14:06:17;7.28;;;6.57;;
51806;SDS011;37865;51.304;9.536;2023-05-07T14:08:42;33.67;;;27.65;;
51806;SDS011;37865;51.304;9.536;2023-05-07T14:11:08;8.95;;;7.57;;
51806;SDS011;37865;51.304;9.536;2023-05-07T14:13:33;7.70;;;5.55;;
51806;SDS011;37865;51.304;9.536;2023-05-07T14:15:59;6.63;;;5.18;;
51806;SDS011;37865;51.304;9.536;2023-05-07T14:18:25;5.68;;;5.18;;
51806;SDS011;37865;51.304;9.536;2023-05-07T14:20:51;6.88;;;5.65;;
51806;SDS011;37865;51.304;9.536;2023-05-07T14:23:16;6.05;;;5.43;;
51806;SDS011;37865;51.304;9.536;2023-05-07T14:25:42;6.28;;;4.88;;
51806;SDS011;37865;51.304;9.536;2023-05-07T14:28:08;6.30;;;5.32;;
51806;SDS011;37865;51.304;9.536;2023-05-07T14:30:33;7.88;;;5.57;;
51806;SDS011;37865;51.304;9.536;2023-05-07T14:33:00;9.32;;;5.82;;
51806;SDS011;37865;51.304;9.536;2023-05-07T14:35:25;7.47;;;6.22;;
51806;SDS011;37865;51.304;9.536;2023-05-07T14:37:50;6.32;;;5.70;;
51806;SDS011;37865;51.304;9.536;2023-05-07T14:40:16;5.55;;;4.90;;